Time;durP1;ratioP1;P1;durP2;ratioP2;P2;SDS_P1;SDS_P2;PMS_P1;PMS_P2;Temp;Humidity;BMP_temperature;BMP_pressure;BME280_temperature;BME280_humidity;BME280_pressure;Samples;Min_cycle;Max_cycle;Signal;HPM_P1;HPM_P2
2021/05/08 00:01:38;;;;;;;3.88;2.92;;;6.20;99.90;;;;;;4971427;28;20651;-38
2021/05/08 00:04:05;;;;;;;3.08;2.80;;;6.20;99.90;;;;;;4970024;28;20221;-38
2021/05/08 00:06:33;;;;;;;4.00;2.92;;;6.20;99.90;;;;;;4982661;28;20229;-38
2021/05/08 00:09:00;;;;;;;2.47;2.38;;;6.10;99.90;;;;;;4970074;28;20210;-38
2021/05/08 00:11:30;;;;;;;3.22;3.03;;;6.00;99.90;;;;;;4970657;28;20198;-38
2021/05/08 00:13:57;;;;;;;6.00;3.88;;;6.00;99.90;;;;;;4968405;28;20221;-38
2021/05/08 00:16:23;;;;;;;4.03;2.78;;;6.00;99.90;;;;;;4971268;28;20540;-38
2021/05/08 00:18:50;;;;;;;4.90;3.83;;;6.00;99.90;;;;;;4971330;28;20241;-38
2021/05/08 00:21:17;;;;;;;3.40;3.20;;;5.90;99.90;;;;;;4970348;28;20222;-38
2021/05/08 00:23:44;;;;;;;5.60;2.90;;;5.80;99.90;;;;;;4970234;28;20256;-38
2021/05/08 00:26:10;;;;;;;6.45;3.08;;;5.80;99.90;;;;;;4970056;28;20286;-38
2021/05/08 00:28:37;;;;;;;3.67;3.42;;;5.90;99.90;;;;;;4968429;28;20614;-38
2021/05/08 00:31:04;;;;;;;3.45;3.15;;;5.90;99.90;;;;;;4971382;28;20221;-38
2021/05/08 00:33:31;;;;;;;4.25;3.92;;;5.80;99.90;;;;;;4961928;28;20263;-38
2021/05/08 00:35:58;;;;;;;3.25;2.90;;;5.60;99.90;;;;;;4964066;28;20673;-38
2021/05/08 00:38:25;;;;;;;3.92;3.20;;;5.40;99.90;;;;;;4969360;28;20194;-39
2021/05/08 00:40:52;;;;;;;3.85;3.55;;;5.30;99.90;;;;;;4967371;28;20199;-38
2021/05/08 00:43:19;;;;;;;3.30;2.92;;;5.30;99.90;;;;;;4967061;28;20241;-38
2021/05/08 00:45:45;;;;;;;5.20;2.97;;;5.30;99.90;;;;;;4969633;28;20274;-38
2021/05/08 00:48:14;;;;;;;3.17;2.88;;;5.20;99.90;;;;;;4953364;28;20226;-38
2021/05/08 00:50:43;;;;;;;6.05;3.35;;;5.00;99.90;;;;;;4981449;28;20236;-39
2021/05/08 00:53:13;;;;;;;3.40;3.10;;;4.90;99.90;;;;;;4968859;28;20211;-38
2021/05/08 00:55:41;;;;;;;4.18;3.83;;;4.90;99.90;;;;;;4962594;28;20664;-38
2021/05/08 00:58:09;;;;;;;3.47;3.17;;;4.90;99.90;;;;;;4957111;28;20206;-38
2021/05/08 01:00:38;;;;;;;3.95;3.65;;;5.00;99.90;;;;;;4970798;28;20229;-38
2021/05/08 01:03:07;;;;;;;6.13;3.38;;;5.10;99.90;;;;;;4963308;28;20593;-38
2021/05/08 01:05:35;;;;;;;4.95;4.45;;;4.90;99.90;;;;;;4982344;28;20199;-40
2021/05/08 01:08:06;;;;;;;4.45;3.85;;;4.90;99.90;;;;;;4967758;28;20213;-38
2021/05/08 01:10:35;;;;;;;3.83;3.47;;;4.80;99.90;;;;;;4963844;28;20780;-39
2021/05/08 01:13:03;;;;;;;5.43;4.22;;;4.80;99.90;;;;;;4971517;28;20226;-39
2021/05/08 01:15:30;;;;;;;5.35;4.05;;;5.10;99.90;;;;;;4972835;28;20198;-38
2021/05/08 01:17:57;;;;;;;5.07;4.18;;;5.30;99.90;;;;;;4972044;28;20202;-39
2021/05/08 01:20:25;;;;;;;4.47;3.78;;;5.40;99.90;;;;;;4966733;28;20233;-39
2021/05/08 01:22:56;;;;;;;3.90;3.45;;;5.60;99.90;;;;;;4979795;28;20673;-39
2021/05/08 01:25:25;;;;;;;4.75;4.25;;;5.20;99.90;;;;;;4959628;28;20317;-39
2021/05/08 01:27:54;;;;;;;4.18;3.65;;;4.90;99.90;;;;;;4986623;28;20210;-38
2021/05/08 01:30:25;;;;;;;5.70;3.60;;;4.70;99.90;;;;;;4972138;28;20684;-38
2021/05/08 01:32:55;;;;;;;5.72;3.85;;;4.60;99.90;;;;;;4970893;28;20206;-38
2021/05/08 01:35:23;;;;;;;5.10;3.70;;;4.40;99.90;;;;;;4969461;28;20211;-38
2021/05/08 01:37:51;;;;;;;5.55;4.30;;;4.40;99.90;;;;;;4970461;28;20285;-38
2021/05/08 01:40:19;;;;;;;7.60;4.63;;;4.40;99.90;;;;;;4958188;28;20249;-39
2021/05/08 01:42:50;;;;;;;6.18;4.13;;;4.40;99.90;;;;;;4968213;28;20194;-38
2021/05/08 01:45:19;;;;;;;4.93;4.53;;;4.50;99.90;;;;;;4965045;28;20222;-39
2021/05/08 01:47:47;;;;;;;6.88;4.70;;;4.70;99.90;;;;;;4972277;28;20302;-39
2021/05/08 01:50:16;;;;;;;7.20;4.35;;;5.00;99.90;;;;;;4970375;28;20544;-38
2021/05/08 01:52:44;;;;;;;4.43;4.13;;;4.80;99.90;;;;;;4964890;28;20280;-38
2021/05/08 01:55:15;;;;;;;4.93;4.28;;;4.60;99.90;;;;;;4964258;28;20209;-40
2021/05/08 01:57:44;;;;;;;4.20;3.78;;;4.50;99.90;;;;;;4971238;28;20209;-38
2021/05/08 02:00:13;;;;;;;5.28;4.78;;;4.20;99.90;;;;;;4966018;28;20205;-39
2021/05/08 02:02:45;;;;;;;5.03;4.63;;;4.00;99.90;;;;;;4970344;28;20626;-38
2021/05/08 02:05:18;;;;;;;5.63;5.05;;;4.00;99.90;;;;;;4985911;28;20197;-38
2021/05/08 02:07:49;;;;;;;5.50;4.90;;;3.90;99.90;;;;;;4970196;28;20225;-38
2021/05/08 02:10:17;;;;;;;8.82;5.45;;;3.90;99.90;;;;;;4957378;28;20677;-39
2021/05/08 02:12:46;;;;;;;5.10;4.60;;;3.80;99.90;;;;;;4967333;28;20198;-39
2021/05/08 02:15:14;;;;;;;6.65;4.60;;;3.80;99.90;;;;;;4985705;28;20206;-40
2021/05/08 02:17:43;;;;;;;5.68;5.10;;;3.80;99.90;;;;;;4954183;28;20217;-40
2021/05/08 02:20:13;;;;;;;4.90;4.50;;;3.90;99.90;;;;;;4975285;28;20194;-40
2021/05/08 02:22:41;;;;;;;5.63;5.13;;;3.80;99.90;;;;;;4984338;28;20194;-39
2021/05/08 02:25:09;;;;;;;6.00;4.88;;;3.90;99.90;;;;;;4963561;28;20205;-39
2021/05/08 02:27:38;;;;;;;5.45;4.43;;;3.90;99.90;;;;;;4984468;28;20274;-40
2021/05/08 02:30:08;;;;;;;6.30;5.68;;;4.00;99.90;;;;;;4956645;28;20195;-39
2021/05/08 02:32:35;;;;;;;5.70;4.78;;;4.00;99.90;;;;;;4954851;28;20362;-39
2021/05/08 02:35:03;;;;;;;5.70;5.20;;;4.10;99.90;;;;;;4971011;28;20214;-38
2021/05/08 02:37:31;;;;;;;5.72;5.22;;;4.20;99.90;;;;;;4957030;28;20673;-39
2021/05/08 02:39:58;;;;;;;6.32;5.13;;;4.30;99.90;;;;;;4951740;28;20210;-38
2021/05/08 02:42:25;;;;;;;7.00;4.90;;;4.40;99.90;;;;;;4954640;28;20629;-40
2021/05/08 02:44:55;;;;;;;5.70;5.20;;;4.40;99.90;;;;;;4967508;28;20666;-39
2021/05/08 02:47:23;;;;;;;6.75;5.35;;;4.60;99.90;;;;;;4971627;28;20292;-39
2021/05/08 02:49:54;;;;;;;5.55;5.03;;;4.80;99.90;;;;;;4985299;28;20206;-38
2021/05/08 02:52:29;;;;;;;7.10;5.78;;;4.60;99.90;;;;;;4962020;28;20206;-40
2021/05/08 02:54:56;;;;;;;5.95;5.05;;;4.40;99.90;;;;;;4971288;28;20217;-39
2021/05/08 02:57:23;;;;;;;6.40;5.53;;;4.40;99.90;;;;;;4953720;28;20206;-39
2021/05/08 02:59:50;;;;;;;6.68;5.95;;;4.30;99.90;;;;;;4980390;28;20195;-39
2021/05/08 03:02:18;;;;;;;5.85;5.28;;;4.40;99.90;;;;;;4953793;28;20194;-39
2021/05/08 03:04:45;;;;;;;6.35;5.70;;;4.40;99.90;;;;;;4973231;28;20214;-39
2021/05/08 03:07:12;;;;;;;6.43;5.93;;;4.40;99.90;;;;;;4952903;28;20647;-40
2021/05/08 03:09:40;;;;;;;12.70;6.70;;;4.40;99.90;;;;;;4973296;28;20568;-39
2021/05/08 03:12:08;;;;;;;6.47;5.90;;;4.30;99.90;;;;;;4971250;28;20692;-39
2021/05/08 03:14:35;;;;;;;6.20;5.68;;;4.40;99.90;;;;;;4968763;28;20215;-39
2021/05/08 03:17:03;;;;;;;6.82;6.15;;;4.40;99.90;;;;;;4955924;28;20191;-39
2021/05/08 03:19:30;;;;;;;7.32;6.72;;;4.70;99.90;;;;;;4971162;28;20197;-45
2021/05/08 03:21:58;;;;;;;6.30;5.75;;;4.80;99.90;;;;;;4971819;28;20285;-39
2021/05/08 03:24:26;;;;;;;7.55;6.78;;;4.90;99.90;;;;;;4972611;28;20218;-40
2021/05/08 03:26:52;;;;;;;8.48;7.10;;;4.90;99.90;;;;;;4974863;28;20221;-39
2021/05/08 03:29:19;;;;;;;6.75;6.15;;;4.80;99.90;;;;;;4965899;28;20190;-39
2021/05/08 03:31:46;;;;;;;7.18;6.47;;;4.90;99.90;;;;;;4980140;28;20195;-39
2021/05/08 03:34:12;;;;;;;8.80;6.85;;;5.00;99.90;;;;;;4974671;28;20241;-39
2021/05/08 03:36:40;;;;;;;8.60;7.70;;;5.00;99.90;;;;;;4973653;28;20194;-39
2021/05/08 03:39:07;;;;;;;6.90;6.30;;;5.00;99.90;;;;;;4967903;28;20560;-40
2021/05/08 03:41:34;;;;;;;8.23;7.43;;;5.00;99.90;;;;;;4957079;28;20203;-40
2021/05/08 03:44:01;;;;;;;7.28;6.57;;;4.90;99.90;;;;;;4972550;28;20242;-39
2021/05/08 03:46:27;;;;;;;7.57;6.95;;;5.00;99.90;;;;;;4963561;28;20310;-39
2021/05/08 03:48:54;;;;;;;8.30;6.55;;;5.00;99.90;;;;;;4963158;28;20671;-39
2021/05/08 03:51:24;;;;;;;6.97;6.38;;;5.00;99.90;;;;;;4968505;28;20408;-39
2021/05/08 03:53:52;;;;;;;10.18;6.85;;;4.60;99.90;;;;;;4959603;28;20337;-39
2021/05/08 03:56:19;;;;;;;7.70;6.60;;;4.40;99.90;;;;;;4956240;28;20286;-39
2021/05/08 03:58:46;;;;;;;7.45;6.35;;;4.50;99.90;;;;;;4954708;28;20254;-39
2021/05/08 04:01:12;;;;;;;7.70;6.78;;;4.70;99.90;;;;;;4964194;28;20671;-39
2021/05/08 04:03:39;;;;;;;7.28;6.28;;;4.70;99.90;;;;;;4956776;28;20251;-40
2021/05/08 04:06:06;;;;;;;6.97;6.30;;;4.60;99.90;;;;;;4973192;28;20218;-40
2021/05/08 04:08:33;;;;;;;8.82;7.00;;;4.70;99.90;;;;;;4970421;28;20202;-39
2021/05/08 04:10:59;;;;;;;7.35;6.50;;;4.70;99.90;;;;;;4972433;28;20229;-39
2021/05/08 04:13:27;;;;;;;5.65;5.13;;;4.40;99.90;;;;;;4972569;28;20229;-39
2021/05/08 04:15:54;;;;;;;6.93;6.22;;;4.20;99.90;;;;;;4964746;28;20210;-39
2021/05/08 04:18:20;;;;;;;7.43;6.10;;;4.20;99.90;;;;;;4961531;28;20205;-38
2021/05/08 04:20:47;;;;;;;7.03;6.43;;;4.10;99.90;;;;;;4973188;28;20241;-38
2021/05/08 04:23:14;;;;;;;7.72;7.13;;;3.80;99.90;;;;;;4967554;28;20222;-39
2021/05/08 04:25:41;;;;;;;8.85;7.70;;;3.60;99.90;;;;;;4955440;28;20214;-38
2021/05/08 04:28:09;;;;;;;9.38;8.23;;;3.60;99.90;;;;;;4955425;28;20587;-39
2021/05/08 04:30:37;;;;;;;8.65;7.80;;;3.60;99.90;;;;;;4959046;28;20221;-39
2021/05/08 04:33:05;;;;;;;8.27;7.55;;;3.80;99.90;;;;;;4973327;28;20221;-39
2021/05/08 04:35:32;;;;;;;8.00;7.20;;;3.80;99.90;;;;;;4972645;28;20202;-39
2021/05/08 04:38:02;;;;;;;9.70;8.60;;;3.80;99.90;;;;;;4964609;28;20187;-40
2021/05/08 04:40:29;;;;;;;10.35;9.25;;;3.90;99.90;;;;;;4954642;28;20198;-39
2021/05/08 04:42:56;;;;;;;8.95;8.15;;;3.90;99.90;;;;;;4954437;28;20440;-39
2021/05/08 04:45:25;;;;;;;11.10;8.75;;;3.90;99.90;;;;;;5003377;23;20235;-37
2021/05/08 04:47:56;;;;;;;10.07;9.10;;;4.00;99.90;;;;;;4993474;28;20229;-37
2021/05/08 04:50:24;;;;;;;12.00;10.18;;;3.90;99.90;;;;;;4992584;28;20615;-37
2021/05/08 04:52:52;;;;;;;11.38;10.38;;;4.00;99.90;;;;;;4991997;28;20564;-36
2021/05/08 04:55:20;;;;;;;12.07;10.68;;;4.20;99.90;;;;;;4992929;28;20793;-37
2021/05/08 04:57:47;;;;;;;9.68;8.70;;;4.30;99.90;;;;;;4992745;28;20202;-39
2021/05/08 05:00:15;;;;;;;10.48;9.20;;;4.40;99.90;;;;;;4992115;28;20697;-37
2021/05/08 05:02:42;;;;;;;10.15;9.23;;;4.50;99.90;;;;;;4992522;28;20194;-37
2021/05/08 05:05:12;;;;;;;11.23;9.60;;;4.60;99.90;;;;;;4992654;28;20217;-37
2021/05/08 05:07:39;;;;;;;10.35;9.35;;;4.70;99.90;;;;;;4991147;28;20587;-38
2021/05/08 05:10:07;;;;;;;12.80;10.25;;;4.70;99.90;;;;;;4992377;28;20193;-38
2021/05/08 05:12:33;;;;;;;11.20;9.65;;;4.70;99.90;;;;;;4992508;28;20198;-37
2021/05/08 05:15:00;;;;;;;12.70;11.43;;;4.60;99.90;;;;;;4992549;28;20213;-37
2021/05/08 05:17:26;;;;;;;14.85;12.60;;;4.60;99.90;;;;;;4992336;28;20285;-37
2021/05/08 05:19:53;;;;;;;13.02;11.82;;;4.60;99.90;;;;;;4992282;28;20225;-37
2021/05/08 05:22:20;;;;;;;12.68;10.88;;;4.60;99.90;;;;;;4992101;28;20209;-37
2021/05/08 05:24:47;;;;;;;13.52;12.23;;;4.70;99.90;;;;;;4991980;28;20221;-37
2021/05/08 05:27:14;;;;;;;13.45;12.07;;;4.80;99.90;;;;;;4992048;28;20209;-38
2021/05/08 05:29:41;;;;;;;16.80;13.25;;;5.00;99.90;;;;;;4991787;28;20198;-37
2021/05/08 05:32:08;;;;;;;16.00;14.07;;;5.10;99.90;;;;;;4991952;28;20225;-37
2021/05/08 05:34:35;;;;;;;16.80;14.70;;;5.30;99.90;;;;;;4991637;28;20217;-37
2021/05/08 05:37:01;;;;;;;14.48;12.85;;;5.40;99.90;;;;;;4991974;28;20193;-38
2021/05/08 05:39:29;;;;;;;17.20;15.45;;;5.40;99.90;;;;;;4991604;28;20208;-37
2021/05/08 05:41:56;;;;;;;16.63;15.00;;;5.50;99.90;;;;;;4991984;28;20197;-37
2021/05/08 05:44:23;;;;;;;16.73;14.98;;;5.70;99.90;;;;;;4991808;28;20225;-37
2021/05/08 05:46:49;;;;;;;16.88;15.13;;;5.80;99.90;;;;;;4991694;28;20229;-37
2021/05/08 05:49:16;;;;;;;17.58;15.82;;;5.90;99.90;;;;;;4991766;28;20225;-37
2021/05/08 05:51:43;;;;;;;16.45;14.85;;;6.00;99.90;;;;;;4991950;28;20224;-37
2021/05/08 05:54:10;;;;;;;18.23;16.33;;;6.10;99.90;;;;;;4991921;28;20225;-37
2021/05/08 05:56:38;;;;;;;17.30;15.65;;;6.30;99.90;;;;;;4992038;28;20205;-37
2021/05/08 05:59:04;;;;;;;18.35;16.35;;;6.50;99.90;;;;;;4991388;28;20215;-38
2021/05/08 06:01:31;;;;;;;20.25;17.23;;;6.60;99.90;;;;;;4991717;28;20193;-37
2021/05/08 06:03:58;;;;;;;18.92;17.08;;;6.70;99.90;;;;;;4991566;28;20213;-36
2021/05/08 06:06:25;;;;;;;19.55;17.75;;;6.70;99.90;;;;;;4991527;28;20189;-37
2021/05/08 06:08:51;;;;;;;19.10;17.02;;;6.70;99.90;;;;;;4991031;28;20682;-37
2021/05/08 06:11:18;;;;;;;18.13;16.30;;;6.90;99.90;;;;;;4991190;28;20636;-37
2021/05/08 06:13:45;;;;;;;18.90;17.05;;;6.90;99.90;;;;;;4991120;28;20213;-37
2021/05/08 06:16:12;;;;;;;18.60;16.80;;;7.00;99.90;;;;;;4991822;28;20818;-37
2021/05/08 06:18:38;;;;;;;18.80;16.60;;;7.20;99.90;;;;;;4990545;28;20683;-38
2021/05/08 06:21:05;;;;;;;17.75;15.73;;;7.20;99.90;;;;;;4990860;28;20316;-37
2021/05/08 06:23:32;;;;;;;18.02;15.88;;;7.00;99.90;;;;;;4991190;28;20645;-37
2021/05/08 06:25:59;;;;;;;17.83;16.02;;;6.90;99.90;;;;;;4991333;28;20228;-37
2021/05/08 06:28:26;;;;;;;17.92;16.25;;;7.00;99.90;;;;;;4990827;28;20243;-37
2021/05/08 06:30:54;;;;;;;17.90;16.10;;;7.20;99.90;;;;;;4991267;28;20240;-36
2021/05/08 06:33:22;;;;;;;18.88;17.13;;;7.30;99.90;;;;;;4990915;28;20222;-37
2021/05/08 06:35:49;;;;;;;17.85;16.25;;;7.60;99.90;;;;;;4991065;28;20197;-37
2021/05/08 06:38:15;;;;;;;17.58;15.75;;;7.80;99.90;;;;;;4991173;28;20200;-37
2021/05/08 06:40:42;;;;;;;18.15;16.08;;;8.00;99.90;;;;;;4989918;28;20272;-37
2021/05/08 06:43:09;;;;;;;17.38;15.75;;;8.20;99.90;;;;;;4990721;28;20288;-38
2021/05/08 06:45:36;;;;;;;15.05;13.60;;;8.20;99.90;;;;;;4990496;28;20202;-38
2021/05/08 06:48:04;;;;;;;16.73;15.15;;;8.30;99.90;;;;;;4990588;28;20209;-36
2021/05/08 06:50:31;;;;;;;16.38;14.13;;;8.50;99.90;;;;;;4990206;28;20619;-37
2021/05/08 06:52:58;;;;;;;14.30;13.00;;;8.70;99.90;;;;;;4991150;28;20253;-39
2021/05/08 06:55:24;;;;;;;15.75;13.98;;;8.80;99.90;;;;;;4991264;28;20216;-37
2021/05/08 06:57:51;;;;;;;14.50;13.20;;;8.90;99.90;;;;;;4991077;28;20267;-37
2021/05/08 07:00:18;;;;;;;14.48;13.00;;;9.20;99.90;;;;;;4990480;28;20197;-39
2021/05/08 07:02:45;;;;;;;13.23;11.93;;;9.20;99.90;;;;;;4990900;28;20730;-37
2021/05/08 07:05:13;;;;;;;15.88;12.10;;;9.30;99.90;;;;;;4989939;28;20231;-37
2021/05/08 07:07:39;;;;;;;18.90;17.00;;;9.20;99.90;;;;;;4990416;28;20304;-37
2021/05/08 07:10:07;;;;;;;13.27;11.93;;;9.10;99.90;;;;;;4990132;28;20217;-38
2021/05/08 07:12:33;;;;;;;14.30;12.93;;;9.00;99.90;;;;;;4991027;28;20256;-37
2021/05/08 07:15:00;;;;;;;15.27;13.75;;;9.20;99.90;;;;;;4990811;28;20214;-37
2021/05/08 07:17:27;;;;;;;15.10;13.73;;;9.20;99.90;;;;;;4991130;28;20193;-39
2021/05/08 07:19:54;;;;;;;14.43;13.00;;;9.30;99.90;;;;;;4989997;28;20280;-37
2021/05/08 07:22:21;;;;;;;15.73;14.13;;;9.50;99.90;;;;;;4990889;28;20220;-39
2021/05/08 07:24:48;;;;;;;19.17;13.57;;;9.40;99.90;;;;;;4982379;28;20300;-38
2021/05/08 07:27:18;;;;;;;13.95;12.75;;;9.50;99.90;;;;;;4990699;28;20220;-38
2021/05/08 07:29:45;;;;;;;13.75;12.57;;;9.60;99.90;;;;;;4989751;28;20200;-37
2021/05/08 07:32:11;;;;;;;15.73;14.15;;;9.70;99.90;;;;;;4990551;28;20213;-38
2021/05/08 07:34:38;;;;;;;16.70;12.93;;;10.00;99.90;;;;;;4990455;28;20229;-38
2021/05/08 07:37:05;;;;;;;16.33;14.73;;;10.20;99.90;;;;;;4990883;28;20276;-37
2021/05/08 07:39:32;;;;;;;14.57;13.27;;;9.90;99.90;;;;;;4990127;28;20685;-37
2021/05/08 07:41:59;;;;;;;13.30;12.13;;;10.10;99.90;;;;;;4990452;28;20698;-37
2021/05/08 07:44:26;;;;;;;15.55;13.93;;;10.20;99.90;;;;;;4991196;28;20233;-37
2021/05/08 07:46:53;;;;;;;14.25;12.88;;;10.50;99.90;;;;;;4991149;28;20224;-38
2021/05/08 07:49:19;;;;;;;14.85;13.40;;;10.50;99.90;;;;;;4989219;28;20200;-38
2021/05/08 07:51:46;;;;;;;14.80;13.40;;;10.80;99.90;;;;;;4991249;28;20235;-37
2021/05/08 07:54:12;;;;;;;13.57;12.45;;;10.90;99.90;;;;;;4989920;28;20252;-37
2021/05/08 07:56:40;;;;;;;10.55;9.65;;;11.00;99.90;;;;;;4990427;28;20710;-38
2021/05/08 07:59:07;;;;;;;10.05;9.18;;;11.10;99.90;;;;;;4993498;28;20200;-39
2021/05/08 08:01:33;;;;;;;10.68;9.68;;;11.00;99.90;;;;;;4993543;28;20205;-39
2021/05/08 08:04:00;;;;;;;11.80;10.73;;;11.20;99.90;;;;;;4994252;28;20225;-38
2021/05/08 08:06:26;;;;;;;9.15;8.25;;;11.30;99.90;;;;;;4993550;28;20668;-37
2021/05/08 08:08:53;;;;;;;11.77;10.68;;;11.20;99.90;;;;;;4993471;28;20229;-37
2021/05/08 08:11:19;;;;;;;10.20;9.35;;;11.20;99.90;;;;;;4993071;28;20331;-37
2021/05/08 08:13:48;;;;;;;9.25;8.40;;;11.20;99.90;;;;;;4993512;28;20292;-39
2021/05/08 08:16:15;;;;;;;9.80;8.73;;;11.30;99.90;;;;;;4994014;28;20201;-37
2021/05/08 08:18:42;;;;;;;10.13;9.18;;;11.10;99.90;;;;;;4993157;28;20197;-38
2021/05/08 08:21:08;;;;;;;11.18;9.75;;;11.30;99.90;;;;;;4993214;28;20209;-37
2021/05/08 08:23:35;;;;;;;11.80;10.70;;;11.50;99.90;;;;;;4993597;28;20213;-38
2021/05/08 08:26:02;;;;;;;9.90;9.02;;;11.70;99.90;;;;;;4993337;28;20205;-37
2021/05/08 08:28:28;;;;;;;9.98;9.02;;;11.50;99.90;;;;;;4993275;28;20225;-39
2021/05/08 08:30:56;;;;;;;10.43;8.35;;;11.60;99.90;;;;;;4995443;28;20190;-38
2021/05/08 08:33:23;;;;;;;9.45;8.60;;;11.70;99.90;;;;;;4993381;28;20245;-37
2021/05/08 08:35:50;;;;;;;9.98;9.00;;;11.80;99.90;;;;;;4993326;28;20301;-39
2021/05/08 08:38:17;;;;;;;9.25;8.32;;;11.70;99.90;;;;;;4993094;28;20252;-38
2021/05/08 08:40:43;;;;;;;12.00;10.27;;;11.90;99.90;;;;;;4992474;28;20288;-37
2021/05/08 08:43:11;;;;;;;11.82;10.70;;;12.20;99.90;;;;;;4992833;28;20611;-38
2021/05/08 08:45:37;;;;;;;11.25;10.10;;;12.30;99.90;;;;;;4993641;28;20223;-37
2021/05/08 08:48:06;;;;;;;12.02;10.80;;;12.70;99.90;;;;;;4999628;28;20213;-40
2021/05/08 08:50:36;;;;;;;7.78;6.97;;;12.80;99.90;;;;;;4992680;28;20204;-38
2021/05/08 08:53:04;;;;;;;8.40;7.60;;;12.70;99.90;;;;;;4992023;28;20566;-38
2021/05/08 08:55:33;;;;;;;5.68;5.18;;;12.60;99.90;;;;;;4990349;28;20688;-40
2021/05/08 08:58:03;;;;;;;10.70;4.28;;;12.60;99.90;;;;;;4992579;28;20650;-38
2021/05/08 09:00:30;;;;;;;4.15;3.85;;;12.60;99.90;;;;;;4991910;28;20826;-37
2021/05/08 09:02:56;;;;;;;7.15;4.88;;;12.80;99.90;;;;;;4991826;28;20193;-37
2021/05/08 09:05:26;;;;;;;5.93;5.03;;;13.00;99.90;;;;;;4992603;28;20283;-37
2021/05/08 09:07:54;;;;;;;5.10;4.30;;;13.10;99.90;;;;;;4983469;28;20670;-37
2021/05/08 09:10:22;;;;;;;10.18;7.80;;;13.10;99.90;;;;;;4991568;28;20231;-38
2021/05/08 09:12:49;;;;;;;4.82;4.43;;;13.60;99.90;;;;;;4992018;28;20217;-37
2021/05/08 09:15:29;;;;;;;6.30;5.70;;;13.80;99.90;;;;;;4993092;28;20229;-38
2021/05/08 09:17:56;;;;;;;6.78;4.82;;;13.80;99.90;;;;;;4991633;28;20194;-37
2021/05/08 09:20:24;;;;;;;5.38;4.03;;;13.80;99.90;;;;;;4992235;28;20229;-39
2021/05/08 09:22:52;;;;;;;5.85;4.05;;;13.60;99.90;;;;;;4991973;28;20325;-37
2021/05/08 09:25:19;;;;;;;4.35;3.97;;;13.80;99.90;;;;;;4992266;28;20233;-37
2021/05/08 09:27:49;;;;;;;6.15;4.30;;;13.50;99.90;;;;;;4991977;28;20213;-37
2021/05/08 09:30:19;;;;;;;8.70;5.57;;;13.50;99.90;;;;;;4991667;28;20201;-38
2021/05/08 09:32:48;;;;;;;5.32;4.90;;;13.80;99.90;;;;;;4987666;28;20672;-38
2021/05/08 09:35:17;;;;;;;4.78;4.43;;;13.50;99.90;;;;;;4991387;28;20307;-39
2021/05/08 09:37:45;;;;;;;5.18;4.68;;;13.60;99.90;;;;;;4990997;28;20256;-37
2021/05/08 09:40:17;;;;;;;5.18;4.05;;;14.00;99.90;;;;;;4991553;28;20193;-38
2021/05/08 09:42:47;;;;;;;6.10;5.50;;;14.30;99.90;;;;;;4991375;28;20205;-38
2021/05/08 09:45:16;;;;;;;7.32;5.80;;;14.30;99.90;;;;;;4992196;28;20253;-38
2021/05/08 09:47:43;;;;;;;5.80;5.30;;;14.80;99.90;;;;;;4991477;28;20217;-38
2021/05/08 09:50:11;;;;;;;8.32;6.13;;;15.20;99.90;;;;;;4972557;28;20198;-38
2021/05/08 09:52:48;;;;;;;5.78;5.20;;;15.20;99.90;;;;;;4988562;28;20229;-39
2021/05/08 09:55:16;;;;;;;6.22;5.57;;;15.10;99.90;;;;;;4991135;28;20286;-38
2021/05/08 09:57:56;;;;;;;4.88;4.47;;;15.00;99.90;;;;;;4991882;28;20197;-37
2021/05/08 10:00:37;;;;;;;6.00;4.00;;;14.90;99.90;;;;;;4991550;28;20220;-39
2021/05/08 10:03:05;;;;;;;5.47;3.88;;;14.90;99.90;;;;;;4988324;28;20692;-38
2021/05/08 10:05:33;;;;;;;6.15;4.32;;;14.20;99.90;;;;;;4991595;28;20363;-38
2021/05/08 10:08:01;;;;;;;6.07;4.40;;;14.30;99.90;;;;;;4991733;28;20766;-38
2021/05/08 10:10:28;;;;;;;4.95;4.47;;;14.20;99.90;;;;;;4990071;28;20730;-38
2021/05/08 10:12:55;;;;;;;7.07;4.45;;;14.20;99.90;;;;;;4990722;28;20292;-38
2021/05/08 10:15:23;;;;;;;6.43;4.55;;;14.70;99.90;;;;;;4990925;28;20227;-38
2021/05/08 10:17:50;;;;;;;5.07;4.55;;;14.70;99.90;;;;;;5000334;23;20340;-80
2021/05/08 10:20:21;;;;;;;5.50;4.10;;;14.60;99.90;;;;;;4994987;28;20709;-80
2021/05/08 10:22:50;;;;;;;7.05;5.13;;;14.70;99.90;;;;;;4987464;28;20198;-81
2021/05/08 10:25:18;;;;;;;6.38;5.78;;;14.80;99.90;;;;;;4983864;28;20290;-83
2021/05/08 10:27:46;;;;;;;5.57;4.88;;;15.00;99.90;;;;;;4984812;28;20217;-82
2021/05/08 10:32:45;;;;;;;7.15;5.28;;;15.50;99.90;;;;;;4952515;28;20299;-41
2021/05/08 10:35:13;;;;;;;9.32;6.00;;;15.30;99.90;;;;;;4969502;28;20205;-41
2021/05/08 10:38:00;;;;;;;7.22;5.07;;;15.50;99.90;;;;;;4964089;28;20289;-42
2021/05/08 10:40:28;;;;;;;7.72;5.25;;;14.90;99.90;;;;;;4968474;28;20699;-42
2021/05/08 10:42:54;;;;;;;5.90;4.50;;;15.00;99.90;;;;;;4963999;28;20703;-41
2021/05/08 10:45:32;;;;;;;5.45;4.82;;;15.30;99.90;;;;;;4977075;23;20259;-41
2021/05/08 10:48:10;;;;;;;5.95;5.07;;;15.40;99.90;;;;;;4966740;28;20225;-39
2021/05/08 10:50:48;;;;;;;6.03;5.22;;;15.80;99.90;;;;;;4970109;28;20201;-39
2021/05/08 10:53:17;;;;;;;6.68;5.03;;;15.70;99.90;;;;;;4965667;28;20619;-39
2021/05/08 10:55:50;;;;;;;5.93;4.60;;;15.70;99.90;;;;;;4958533;28;20636;-40
2021/05/08 10:58:35;;;;;;;6.35;4.97;;;16.20;99.90;;;;;;4971169;28;20212;-40
2021/05/08 11:01:05;;;;;;;4.93;4.53;;;16.90;99.90;;;;;;4970775;28;20194;-40
2021/05/08 11:03:33;;;;;;;6.35;4.85;;;16.80;99.90;;;;;;4969207;28;20198;-39
2021/05/08 11:06:02;;;;;;;5.00;4.45;;;16.30;99.90;;;;;;4964474;28;20294;-39
2021/05/08 11:08:48;;;;;;;5.50;5.00;;;15.80;99.90;;;;;;4968576;28;20226;-41
2021/05/08 11:11:19;;;;;;;5.57;4.82;;;15.60;99.90;;;;;;4957438;28;20206;-39
2021/05/08 11:14:00;;;;;;;5.85;5.13;;;15.90;99.90;;;;;;4952718;28;20214;-39
2021/05/08 11:16:31;;;;;;;5.97;5.38;;;15.90;99.90;;;;;;4965930;28;20222;-39
2021/05/08 11:18:59;;;;;;;5.25;4.70;;;15.90;99.90;;;;;;4955283;28;20190;-39
2021/05/08 11:21:42;;;;;;;6.20;5.60;;;16.10;99.90;;;;;;4958757;28;20197;-39
2021/05/08 11:24:11;;;;;;;6.63;5.95;;;15.90;99.90;;;;;;4968464;28;20214;-40
2021/05/08 11:26:47;;;;;;;6.25;5.03;;;15.90;99.90;;;;;;4962012;28;20206;-40
2021/05/08 11:29:18;;;;;;;6.07;5.32;;;16.10;99.90;;;;;;4956731;28;20194;-39
2021/05/08 11:31:47;;;;;;;7.55;5.65;;;16.20;99.90;;;;;;4964826;28;20237;-40
2021/05/08 11:34:16;;;;;;;9.63;5.30;;;16.20;99.90;;;;;;4972634;28;20663;-40
2021/05/08 11:36:45;;;;;;;5.07;4.60;;;16.30;99.90;;;;;;4968226;28;20264;-40
2021/05/08 11:39:12;;;;;;;5.78;4.60;;;16.00;99.90;;;;;;4971225;28;20294;-39
2021/05/08 11:41:39;;;;;;;6.68;4.45;;;15.50;99.90;;;;;;4960874;28;20572;-40
2021/05/08 11:44:08;;;;;;;5.80;4.28;;;15.70;99.90;;;;;;4967642;28;20633;-40
2021/05/08 11:46:35;;;;;;;3.90;3.60;;;15.60;99.90;;;;;;4961693;28;20245;-39
2021/05/08 11:49:03;;;;;;;7.75;4.63;;;16.20;99.90;;;;;;4971529;28;20248;-39
2021/05/08 11:51:29;;;;;;;3.60;3.30;;;16.50;99.90;;;;;;4954440;28;20581;-39
2021/05/08 11:54:10;;;;;;;7.40;4.82;;;16.70;99.90;;;;;;4964137;28;20198;-40
2021/05/08 11:56:38;;;;;;;3.67;3.38;;;16.70;99.90;;;;;;4965516;28;20195;-39
2021/05/08 11:59:07;;;;;;;4.82;4.18;;;16.70;99.90;;;;;;4972769;28;20198;-39
2021/05/08 12:01:34;;;;;;;5.45;3.60;;;16.70;99.90;;;;;;4973310;28;20776;-40
2021/05/08 12:04:03;;;;;;;4.25;3.70;;;16.80;99.90;;;;;;4971615;28;20715;-39
2021/05/08 12:06:30;;;;;;;5.20;3.92;;;17.10;99.90;;;;;;4970645;28;20210;-40
2021/05/08 12:08:56;;;;;;;3.38;3.08;;;16.80;99.90;;;;;;4971469;28;20253;-39
2021/05/08 12:11:24;;;;;;;4.20;3.05;;;17.10;99.90;;;;;;4972064;28;20194;-39
2021/05/08 12:13:51;;;;;;;4.22;3.83;;;17.00;99.90;;;;;;4969724;28;20190;-40
2021/05/08 12:16:19;;;;;;;4.43;4.00;;;17.20;99.90;;;;;;4972826;28;20234;-39
2021/05/08 12:18:46;;;;;;;3.97;3.63;;;16.90;99.90;;;;;;4971967;28;20690;-39
2021/05/08 12:21:14;;;;;;;3.65;3.28;;;16.80;99.90;;;;;;4961022;28;20212;-40
2021/05/08 12:23:41;;;;;;;3.88;3.10;;;17.30;99.90;;;;;;4964615;28;20206;-40
2021/05/08 12:26:13;;;;;;;3.78;3.33;;;17.40;99.90;;;;;;4962496;28;20219;-39
2021/05/08 12:28:40;;;;;;;3.88;3.58;;;17.30;99.90;;;;;;4953780;28;20306;-39
2021/05/08 12:31:23;;;;;;;4.22;3.83;;;17.10;99.90;;;;;;4967100;28;20683;-40
2021/05/08 12:33:51;;;;;;;4.20;3.53;;;17.10;99.90;;;;;;4961844;28;20261;-39
2021/05/08 12:36:20;;;;;;;2.97;2.72;;;17.20;99.90;;;;;;4955620;28;20246;-39
2021/05/08 12:38:47;;;;;;;4.22;3.65;;;17.50;99.90;;;;;;4970347;28;20194;-40
2021/05/08 12:41:31;;;;;;;3.38;2.38;;;17.20;99.90;;;;;;4972022;28;20661;-40
2021/05/08 12:44:09;;;;;;;3.85;3.20;;;17.50;99.90;;;;;;4975144;28;20253;-39
2021/05/08 12:47:15;;;;;;;3.33;3.03;;;17.60;99.90;;;;;;4972465;28;20198;-39
2021/05/08 12:50:04;;;;;;;3.33;2.85;;;17.80;99.90;;;;;;4942948;28;20225;-39
2021/05/08 12:52:31;;;;;;;3.10;2.15;;;18.20;99.90;;;;;;4977468;28;20201;-40
2021/05/08 12:54:58;;;;;;;3.55;3.20;;;18.50;99.90;;;;;;4976006;28;20221;-39
2021/05/08 12:57:26;;;;;;;3.28;2.63;;;18.70;99.90;;;;;;4972353;28;20194;-39